sensor_id;sensor_type;location;lat;lon;timestamp;P1;durP1;ratioP1;P2;durP2;ratioP2
42600;SDS011;28229;48.856;9.088;2024-02-21T00:01:14;9.67;;;5.33;;
42600;SDS011;28229;48.856;9.088;2024-02-21T00:03:41;9.80;;;4.80;;
42600;SDS011;28229;48.856;9.088;2024-02-21T00:06:07;8.20;;;4.53;;
42600;SDS011;28229;48.856;9.088;2024-02-21T00:08:33;9.23;;;4.63;;
42600;SDS011;28229;48.856;9.088;2024-02-21T00:10:59;12.37;;;5.00;;
42600;SDS011;28229;48.856;9.088;2024-02-21T00:13:25;10.07;;;5.10;;
42600;SDS011;28229;48.856;9.088;2024-02-21T00:15:51;9.53;;;4.17;;
42600;SDS011;28229;48.856;9.088;2024-02-21T00:18:17;10.67;;;4.90;;
42600;SDS011;28229;48.856;9.088;2024-02-21T00:20:43;7.40;;;4.10;;
42600;SDS011;28229;48.856;9.088;2024-02-21T00:23:10;8.53;;;4.20;;
42600;SDS011;28229;48.856;9.088;2024-02-21T00:25:36;8.07;;;4.40;;
42600;SDS011;28229;48.856;9.088;2024-02-21T00:28:02;8.60;;;4.67;;
42600;SDS011;28229;48.856;9.088;2024-02-21T00:30:28;9.97;;;3.73;;
42600;SDS011;28229;48.856;9.088;2024-02-21T00:32:55;6.73;;;3.93;;
42600;SDS011;28229;48.856;9.088;2024-02-21T00:35:23;8.97;;;4.07;;
42600;SDS011;28229;48.856;9.088;2024-02-21T00:37:49;6.33;;;3.83;;
42600;SDS011;28229;48.856;9.088;2024-02-21T00:40:15;9.23;;;4.10;;
42600;SDS011;28229;48.856;9.088;2024-02-21T00:42:46;7.93;;;3.87;;
42600;SDS011;28229;48.856;9.088;2024-02-21T00:45:12;8.00;;;3.80;;
42600;SDS011;28229;48.856;9.088;2024-02-21T00:47:39;7.20;;;3.83;;
42600;SDS011;28229;48.856;9.088;2024-02-21T00:50:05;8.93;;;4.67;;
42600;SDS011;28229;48.856;9.088;2024-02-21T00:52:33;8.73;;;3.87;;
42600;SDS011;28229;48.856;9.088;2024-02-21T00:54:59;8.10;;;4.20;;
42600;SDS011;28229;48.856;9.088;2024-02-21T00:57:25;8.17;;;4.27;;
42600;SDS011;28229;48.856;9.088;2024-02-21T00:59:52;9.17;;;4.67;;
42600;SDS011;28229;48.856;9.088;2024-02-21T01:02:18;8.63;;;4.23;;
42600;SDS011;28229;48.856;9.088;2024-02-21T01:04:44;8.80;;;4.10;;
42600;SDS011;28229;48.856;9.088;2024-02-21T01:07:10;8.10;;;3.90;;
42600;SDS011;28229;48.856;9.088;2024-02-21T01:09:36;10.83;;;4.33;;
42600;SDS011;28229;48.856;9.088;2024-02-21T01:12:02;8.93;;;4.47;;
42600;SDS011;28229;48.856;9.088;2024-02-21T01:14:29;10.30;;;4.67;;
42600;SDS011;28229;48.856;9.088;2024-02-21T01:16:55;9.57;;;4.07;;
42600;SDS011;28229;48.856;9.088;2024-02-21T01:19:21;5.97;;;3.53;;
42600;SDS011;28229;48.856;9.088;2024-02-21T01:21:55;7.23;;;4.37;;
42600;SDS011;28229;48.856;9.088;2024-02-21T01:24:22;10.03;;;4.10;;
42600;SDS011;28229;48.856;9.088;2024-02-21T01:26:48;9.77;;;4.20;;
42600;SDS011;28229;48.856;9.088;2024-02-21T01:29:14;9.23;;;3.70;;
42600;SDS011;28229;48.856;9.088;2024-02-21T01:31:41;7.17;;;3.27;;
42600;SDS011;28229;48.856;9.088;2024-02-21T01:34:08;5.13;;;2.97;;
42600;SDS011;28229;48.856;9.088;2024-02-21T01:36:35;8.97;;;3.43;;
42600;SDS011;28229;48.856;9.088;2024-02-21T01:39:01;4.30;;;2.93;;
42600;SDS011;28229;48.856;9.088;2024-02-21T01:41:29;10.43;;;3.20;;
42600;SDS011;28229;48.856;9.088;2024-02-21T01:43:56;6.43;;;3.27;;
42600;SDS011;28229;48.856;9.088;2024-02-21T01:46:23;7.37;;;3.10;;
42600;SDS011;28229;48.856;9.088;2024-02-21T01:48:56;7.93;;;3.00;;
42600;SDS011;28229;48.856;9.088;2024-02-21T01:51:24;8.67;;;3.43;;
42600;SDS011;28229;48.856;9.088;2024-02-21T01:53:51;9.47;;;3.07;;
42600;SDS011;28229;48.856;9.088;2024-02-21T01:56:19;6.17;;;2.87;;
42600;SDS011;28229;48.856;9.088;2024-02-21T01:58:45;9.17;;;3.20;;
42600;SDS011;28229;48.856;9.088;2024-02-21T02:01:14;5.13;;;2.83;;
42600;SDS011;28229;48.856;9.088;2024-02-21T02:03:40;6.60;;;2.90;;
42600;SDS011;28229;48.856;9.088;2024-02-21T02:06:06;8.33;;;3.20;;
42600;SDS011;28229;48.856;9.088;2024-02-21T02:08:32;5.23;;;2.97;;
42600;SDS011;28229;48.856;9.088;2024-02-21T02:10:59;8.00;;;3.10;;
42600;SDS011;28229;48.856;9.088;2024-02-21T02:13:25;7.40;;;3.30;;
42600;SDS011;28229;48.856;9.088;2024-02-21T02:15:51;5.53;;;3.27;;
42600;SDS011;28229;48.856;9.088;2024-02-21T02:18:19;4.80;;;2.50;;
42600;SDS011;28229;48.856;9.088;2024-02-21T02:20:46;5.63;;;2.70;;
42600;SDS011;28229;48.856;9.088;2024-02-21T02:23:24;7.20;;;2.90;;
42600;SDS011;28229;48.856;9.088;2024-02-21T02:25:51;6.10;;;3.00;;
42600;SDS011;28229;48.856;9.088;2024-02-21T02:28:18;8.83;;;3.43;;
42600;SDS011;28229;48.856;9.088;2024-02-21T02:30:44;5.63;;;2.80;;
42600;SDS011;28229;48.856;9.088;2024-02-21T02:33:11;9.77;;;3.00;;
42600;SDS011;28229;48.856;9.088;2024-02-21T02:35:37;8.17;;;3.13;;
42600;SDS011;28229;48.856;9.088;2024-02-21T02:38:04;5.93;;;2.73;;
42600;SDS011;28229;48.856;9.088;2024-02-21T02:40:34;6.67;;;2.87;;
42600;SDS011;28229;48.856;9.088;2024-02-21T02:43:00;8.30;;;3.13;;
42600;SDS011;28229;48.856;9.088;2024-02-21T02:45:27;6.97;;;2.97;;
42600;SDS011;28229;48.856;9.088;2024-02-21T02:47:53;6.90;;;3.67;;
42600;SDS011;28229;48.856;9.088;2024-02-21T02:50:20;6.40;;;2.60;;
42600;SDS011;28229;48.856;9.088;2024-02-21T02:52:46;6.20;;;2.50;;
42600;SDS011;28229;48.856;9.088;2024-02-21T02:55:12;7.13;;;2.30;;
42600;SDS011;28229;48.856;9.088;2024-02-21T02:57:38;4.50;;;2.50;;
42600;SDS011;28229;48.856;9.088;2024-02-21T03:00:05;5.10;;;2.73;;
42600;SDS011;28229;48.856;9.088;2024-02-21T03:02:34;7.73;;;3.17;;
42600;SDS011;28229;48.856;9.088;2024-02-21T03:05:01;6.07;;;2.67;;
42600;SDS011;28229;48.856;9.088;2024-02-21T03:07:36;5.60;;;3.20;;
42600;SDS011;28229;48.856;9.088;2024-02-21T03:10:05;6.47;;;2.97;;
42600;SDS011;28229;48.856;9.088;2024-02-21T03:12:31;8.20;;;2.90;;
42600;SDS011;28229;48.856;9.088;2024-02-21T03:14:58;5.73;;;2.80;;
42600;SDS011;28229;48.856;9.088;2024-02-21T03:17:24;7.17;;;2.97;;
42600;SDS011;28229;48.856;9.088;2024-02-21T03:19:51;4.87;;;2.60;;
42600;SDS011;28229;48.856;9.088;2024-02-21T03:22:18;7.20;;;2.80;;
42600;SDS011;28229;48.856;9.088;2024-02-21T03:24:44;6.07;;;3.03;;
42600;SDS011;28229;48.856;9.088;2024-02-21T03:27:10;6.17;;;3.23;;
42600;SDS011;28229;48.856;9.088;2024-02-21T03:29:36;7.13;;;3.77;;
42600;SDS011;28229;48.856;9.088;2024-02-21T03:32:03;6.10;;;2.80;;
42600;SDS011;28229;48.856;9.088;2024-02-21T03:34:29;7.10;;;3.00;;
42600;SDS011;28229;48.856;9.088;2024-02-21T03:36:55;7.73;;;3.37;;
42600;SDS011;28229;48.856;9.088;2024-02-21T03:39:21;9.03;;;3.27;;
42600;SDS011;28229;48.856;9.088;2024-02-21T03:41:47;5.97;;;3.10;;
42600;SDS011;28229;48.856;9.088;2024-02-21T03:44:14;6.13;;;3.07;;
42600;SDS011;28229;48.856;9.088;2024-02-21T03:46:40;5.73;;;3.20;;
42600;SDS011;28229;48.856;9.088;2024-02-21T03:49:06;6.63;;;3.23;;
42600;SDS011;28229;48.856;9.088;2024-02-21T03:51:33;9.10;;;3.13;;
42600;SDS011;28229;48.856;9.088;2024-02-21T03:53:59;7.60;;;3.57;;
42600;SDS011;28229;48.856;9.088;2024-02-21T03:56:25;9.77;;;4.10;;
42600;SDS011;28229;48.856;9.088;2024-02-21T03:58:51;7.17;;;4.23;;
42600;SDS011;28229;48.856;9.088;2024-02-21T04:01:17;11.90;;;9.20;;
42600;SDS011;28229;48.856;9.088;2024-02-21T04:03:43;7.67;;;4.10;;
42600;SDS011;28229;48.856;9.088;2024-02-21T04:06:10;5.30;;;3.20;;
42600;SDS011;28229;48.856;9.088;2024-02-21T04:08:36;6.73;;;3.20;;
42600;SDS011;28229;48.856;9.088;2024-02-21T04:11:02;6.77;;;4.73;;
42600;SDS011;28229;48.856;9.088;2024-02-21T04:13:29;11.13;;;6.67;;
42600;SDS011;28229;48.856;9.088;2024-02-21T04:15:55;12.80;;;8.67;;
42600;SDS011;28229;48.856;9.088;2024-02-21T04:18:21;8.83;;;3.63;;
42600;SDS011;28229;48.856;9.088;2024-02-21T04:20:48;7.87;;;3.20;;
42600;SDS011;28229;48.856;9.088;2024-02-21T04:23:14;6.17;;;3.23;;
42600;SDS011;28229;48.856;9.088;2024-02-21T04:25:40;5.77;;;2.90;;
42600;SDS011;28229;48.856;9.088;2024-02-21T04:28:06;8.23;;;2.87;;
42600;SDS011;28229;48.856;9.088;2024-02-21T04:30:32;4.43;;;3.27;;
42600;SDS011;28229;48.856;9.088;2024-02-21T04:32:59;6.80;;;3.03;;
42600;SDS011;28229;48.856;9.088;2024-02-21T04:35:25;7.30;;;3.53;;
42600;SDS011;28229;48.856;9.088;2024-02-21T04:37:51;6.50;;;3.00;;
42600;SDS011;28229;48.856;9.088;2024-02-21T04:40:17;6.97;;;3.27;;
42600;SDS011;28229;48.856;9.088;2024-02-21T04:42:43;7.17;;;3.07;;
42600;SDS011;28229;48.856;9.088;2024-02-21T04:45:10;5.57;;;2.93;;
42600;SDS011;28229;48.856;9.088;2024-02-21T04:47:36;7.37;;;3.00;;
42600;SDS011;28229;48.856;9.088;2024-02-21T04:50:02;10.27;;;2.93;;
42600;SDS011;28229;48.856;9.088;2024-02-21T04:52:29;7.10;;;2.93;;
42600;SDS011;28229;48.856;9.088;2024-02-21T04:54:55;6.60;;;3.17;;
42600;SDS011;28229;48.856;9.088;2024-02-21T04:57:22;4.37;;;3.17;;
42600;SDS011;28229;48.856;9.088;2024-02-21T04:59:48;5.73;;;2.83;;
42600;SDS011;28229;48.856;9.088;2024-02-21T05:02:14;7.73;;;3.47;;
42600;SDS011;28229;48.856;9.088;2024-02-21T05:04:40;5.90;;;3.27;;
42600;SDS011;28229;48.856;9.088;2024-02-21T05:07:07;7.93;;;3.13;;
42600;SDS011;28229;48.856;9.088;2024-02-21T05:09:33;8.43;;;3.20;;
42600;SDS011;28229;48.856;9.088;2024-02-21T05:12:00;7.70;;;3.17;;
42600;SDS011;28229;48.856;9.088;2024-02-21T05:14:26;7.40;;;3.07;;
42600;SDS011;28229;48.856;9.088;2024-02-21T05:17:05;4.97;;;2.93;;
42600;SDS011;28229;48.856;9.088;2024-02-21T05:57:50;10.53;;;5.37;;
42600;SDS011;28229;48.856;9.088;2024-02-21T06:06:18;7.47;;;3.50;;
42600;SDS011;28229;48.856;9.088;2024-02-21T06:09:28;6.23;;;3.60;;
42600;SDS011;28229;48.856;9.088;2024-02-21T06:11:57;7.23;;;3.60;;
42600;SDS011;28229;48.856;9.088;2024-02-21T06:15:15;6.83;;;3.13;;
42600;SDS011;28229;48.856;9.088;2024-02-21T06:20:43;9.13;;;3.67;;
42600;SDS011;28229;48.856;9.088;2024-02-21T06:23:22;7.80;;;3.30;;
42600;SDS011;28229;48.856;9.088;2024-02-21T06:25:48;8.10;;;3.20;;
42600;SDS011;28229;48.856;9.088;2024-02-21T06:28:14;6.30;;;3.10;;
42600;SDS011;28229;48.856;9.088;2024-02-21T06:43:37;7.20;;;4.57;;
42600;SDS011;28229;48.856;9.088;2024-02-21T06:46:27;7.30;;;4.00;;
42600;SDS011;28229;48.856;9.088;2024-02-21T06:55:00;7.73;;;3.20;;
42600;SDS011;28229;48.856;9.088;2024-02-21T06:57:26;10.47;;;3.80;;
42600;SDS011;28229;48.856;9.088;2024-02-21T07:18:41;5.53;;;2.90;;
42600;SDS011;28229;48.856;9.088;2024-02-21T07:37:13;5.47;;;2.30;;
42600;SDS011;28229;48.856;9.088;2024-02-21T07:45:42;5.27;;;2.40;;
42600;SDS011;28229;48.856;9.088;2024-02-21T08:23:19;5.60;;;2.27;;
42600;SDS011;28229;48.856;9.088;2024-02-21T08:25:52;4.57;;;2.27;;
42600;SDS011;28229;48.856;9.088;2024-02-21T08:28:19;8.10;;;3.03;;
42600;SDS011;28229;48.856;9.088;2024-02-21T08:30:45;6.40;;;3.10;;
42600;SDS011;28229;48.856;9.088;2024-02-21T08:33:16;3.43;;;2.13;;
42600;SDS011;28229;48.856;9.088;2024-02-21T08:35:51;5.97;;;2.23;;
42600;SDS011;28229;48.856;9.088;2024-02-21T08:38:17;7.47;;;2.00;;
42600;SDS011;28229;48.856;9.088;2024-02-21T08:40:44;6.57;;;2.10;;
42600;SDS011;28229;48.856;9.088;2024-02-21T08:43:13;4.47;;;2.30;;
42600;SDS011;28229;48.856;9.088;2024-02-21T08:45:39;4.13;;;2.07;;
42600;SDS011;28229;48.856;9.088;2024-02-21T08:48:05;6.07;;;2.60;;
42600;SDS011;28229;48.856;9.088;2024-02-21T08:50:32;3.73;;;1.93;;
42600;SDS011;28229;48.856;9.088;2024-02-21T08:52:58;6.27;;;2.80;;
42600;SDS011;28229;48.856;9.088;2024-02-21T08:55:24;7.07;;;2.50;;
42600;SDS011;28229;48.856;9.088;2024-02-21T08:57:50;6.70;;;2.33;;
42600;SDS011;28229;48.856;9.088;2024-02-21T09:00:16;4.93;;;2.10;;
42600;SDS011;28229;48.856;9.088;2024-02-21T09:02:43;4.17;;;2.03;;
42600;SDS011;28229;48.856;9.088;2024-02-21T09:05:09;4.17;;;1.90;;
42600;SDS011;28229;48.856;9.088;2024-02-21T09:07:35;4.67;;;2.00;;
42600;SDS011;28229;48.856;9.088;2024-02-21T09:10:02;4.63;;;1.77;;
42600;SDS011;28229;48.856;9.088;2024-02-21T09:12:28;7.43;;;2.43;;
42600;SDS011;28229;48.856;9.088;2024-02-21T09:14:55;7.27;;;2.00;;
42600;SDS011;28229;48.856;9.088;2024-02-21T09:17:21;6.87;;;2.30;;
42600;SDS011;28229;48.856;9.088;2024-02-21T09:19:47;4.20;;;1.87;;
42600;SDS011;28229;48.856;9.088;2024-02-21T09:22:13;7.47;;;2.40;;
42600;SDS011;28229;48.856;9.088;2024-02-21T09:24:40;3.67;;;1.90;;
42600;SDS011;28229;48.856;9.088;2024-02-21T09:27:06;5.67;;;2.03;;
42600;SDS011;28229;48.856;9.088;2024-02-21T09:29:32;4.77;;;2.00;;
42600;SDS011;28229;48.856;9.088;2024-02-21T09:32:01;5.40;;;2.20;;
42600;SDS011;28229;48.856;9.088;2024-02-21T09:34:29;6.30;;;2.50;;
42600;SDS011;28229;48.856;9.088;2024-02-21T09:36:55;8.30;;;2.93;;
42600;SDS011;28229;48.856;9.088;2024-02-21T09:39:21;6.67;;;2.70;;
42600;SDS011;28229;48.856;9.088;2024-02-21T09:41:49;6.40;;;2.23;;
42600;SDS011;28229;48.856;9.088;2024-02-21T09:44:22;4.07;;;1.67;;
42600;SDS011;28229;48.856;9.088;2024-02-21T09:46:55;5.17;;;2.03;;
42600;SDS011;28229;48.856;9.088;2024-02-21T09:49:32;6.87;;;2.20;;
42600;SDS011;28229;48.856;9.088;2024-02-21T09:52:00;3.77;;;2.10;;
42600;SDS011;28229;48.856;9.088;2024-02-21T09:54:34;5.20;;;2.40;;
42600;SDS011;28229;48.856;9.088;2024-02-21T09:57:01;7.73;;;4.00;;
42600;SDS011;28229;48.856;9.088;2024-02-21T09:59:31;8.97;;;2.80;;
42600;SDS011;28229;48.856;9.088;2024-02-21T10:01:58;6.27;;;2.50;;
42600;SDS011;28229;48.856;9.088;2024-02-21T10:04:28;4.57;;;2.90;;
42600;SDS011;28229;48.856;9.088;2024-02-21T10:06:57;6.97;;;3.17;;
42600;SDS011;28229;48.856;9.088;2024-02-21T10:09:23;6.00;;;2.33;;
42600;SDS011;28229;48.856;9.088;2024-02-21T10:11:54;6.30;;;2.63;;
42600;SDS011;28229;48.856;9.088;2024-02-21T10:14:21;5.17;;;1.93;;
42600;SDS011;28229;48.856;9.088;2024-02-21T10:16:48;6.00;;;2.07;;
42600;SDS011;28229;48.856;9.088;2024-02-21T10:19:16;4.87;;;1.77;;
42600;SDS011;28229;48.856;9.088;2024-02-21T10:22:07;4.83;;;2.40;;
42600;SDS011;28229;48.856;9.088;2024-02-21T10:24:35;4.60;;;2.27;;
42600;SDS011;28229;48.856;9.088;2024-02-21T10:27:04;6.40;;;1.93;;
42600;SDS011;28229;48.856;9.088;2024-02-21T10:29:34;4.87;;;1.90;;
42600;SDS011;28229;48.856;9.088;2024-02-21T10:32:04;5.83;;;1.80;;
42600;SDS011;28229;48.856;9.088;2024-02-21T10:34:38;5.47;;;2.10;;
42600;SDS011;28229;48.856;9.088;2024-02-21T10:37:06;4.17;;;1.80;;
42600;SDS011;28229;48.856;9.088;2024-02-21T10:39:34;2.07;;;1.70;;
42600;SDS011;28229;48.856;9.088;2024-02-21T10:42:02;9.47;;;2.60;;
42600;SDS011;28229;48.856;9.088;2024-02-21T10:44:33;5.00;;;2.00;;
42600;SDS011;28229;48.856;9.088;2024-02-21T10:47:09;8.80;;;2.37;;
42600;SDS011;28229;48.856;9.088;2024-02-21T10:49:38;6.47;;;2.20;;
42600;SDS011;28229;48.856;9.088;2024-02-21T10:55:10;4.40;;;1.93;;
42600;SDS011;28229;48.856;9.088;2024-02-21T10:57:45;4.83;;;2.23;;
42600;SDS011;28229;48.856;9.088;2024-02-21T11:00:12;5.20;;;2.13;;
42600;SDS011;28229;48.856;9.088;2024-02-21T11:02:44;4.10;;;1.90;;
42600;SDS011;28229;48.856;9.088;2024-02-21T11:05:15;5.73;;;2.10;;
42600;SDS011;28229;48.856;9.088;2024-02-21T11:07:42;3.20;;;1.60;;
42600;SDS011;28229;48.856;9.088;2024-02-21T11:10:24;5.13;;;2.00;;
42600;SDS011;28229;48.856;9.088;2024-02-21T11:13:09;14.50;;;5.43;;
42600;SDS011;28229;48.856;9.088;2024-02-21T11:15:36;4.70;;;2.17;;
42600;SDS011;28229;48.856;9.088;2024-02-21T11:18:02;6.13;;;2.00;;
42600;SDS011;28229;48.856;9.088;2024-02-21T11:20:36;6.13;;;2.60;;
42600;SDS011;28229;48.856;9.088;2024-02-21T11:23:03;19.13;;;7.63;;
42600;SDS011;28229;48.856;9.088;2024-02-21T11:25:30;18.70;;;9.47;;
42600;SDS011;28229;48.856;9.088;2024-02-21T11:28:00;13.97;;;6.73;;
42600;SDS011;28229;48.856;9.088;2024-02-21T11:30:27;6.10;;;1.93;;
42600;SDS011;28229;48.856;9.088;2024-02-21T11:32:59;5.47;;;2.03;;
42600;SDS011;28229;48.856;9.088;2024-02-21T11:35:32;6.40;;;3.10;;
42600;SDS011;28229;48.856;9.088;2024-02-21T11:38:10;4.73;;;2.83;;
42600;SDS011;28229;48.856;9.088;2024-02-21T11:40:45;7.33;;;2.70;;
42600;SDS011;28229;48.856;9.088;2024-02-21T11:43:12;3.80;;;2.13;;
42600;SDS011;28229;48.856;9.088;2024-02-21T11:45:38;3.13;;;1.77;;
42600;SDS011;28229;48.856;9.088;2024-02-21T11:48:07;4.03;;;1.87;;
42600;SDS011;28229;48.856;9.088;2024-02-21T11:50:36;4.40;;;1.80;;
42600;SDS011;28229;48.856;9.088;2024-02-21T11:53:05;5.73;;;1.90;;
42600;SDS011;28229;48.856;9.088;2024-02-21T11:55:31;2.50;;;1.50;;
42600;SDS011;28229;48.856;9.088;2024-02-21T11:57:57;2.83;;;1.60;;
42600;SDS011;28229;48.856;9.088;2024-02-21T12:00:25;4.23;;;1.80;;
42600;SDS011;28229;48.856;9.088;2024-02-21T12:02:51;5.33;;;1.70;;
42600;SDS011;28229;48.856;9.088;2024-02-21T12:05:21;4.47;;;1.80;;
42600;SDS011;28229;48.856;9.088;2024-02-21T12:07:47;5.87;;;1.80;;
42600;SDS011;28229;48.856;9.088;2024-02-21T12:10:13;4.77;;;2.10;;
42600;SDS011;28229;48.856;9.088;2024-02-21T12:12:39;4.20;;;1.93;;
42600;SDS011;28229;48.856;9.088;2024-02-21T12:15:06;2.93;;;1.63;;
42600;SDS011;28229;48.856;9.088;2024-02-21T12:17:33;4.47;;;1.80;;
42600;SDS011;28229;48.856;9.088;2024-02-21T12:20:03;5.13;;;2.10;;
42600;SDS011;28229;48.856;9.088;2024-02-21T12:22:37;5.00;;;2.13;;
42600;SDS011;28229;48.856;9.088;2024-02-21T12:25:04;4.73;;;2.00;;
42600;SDS011;28229;48.856;9.088;2024-02-21T12:27:43;4.13;;;2.10;;
42600;SDS011;28229;48.856;9.088;2024-02-21T12:30:10;4.47;;;1.70;;
42600;SDS011;28229;48.856;9.088;2024-02-21T12:32:36;5.00;;;2.33;;
42600;SDS011;28229;48.856;9.088;2024-02-21T12:35:02;3.67;;;1.60;;
42600;SDS011;28229;48.856;9.088;2024-02-21T12:37:29;4.80;;;1.60;;
42600;SDS011;28229;48.856;9.088;2024-02-21T12:39:55;3.90;;;1.80;;
42600;SDS011;28229;48.856;9.088;2024-02-21T12:42:22;4.03;;;2.30;;
42600;SDS011;28229;48.856;9.088;2024-02-21T12:44:49;6.13;;;1.87;;
42600;SDS011;28229;48.856;9.088;2024-02-21T12:47:15;4.63;;;1.80;;
42600;SDS011;28229;48.856;9.088;2024-02-21T12:49:41;3.23;;;1.80;;
42600;SDS011;28229;48.856;9.088;2024-02-21T12:52:08;6.07;;;1.73;;
42600;SDS011;28229;48.856;9.088;2024-02-21T12:54:34;4.00;;;1.87;;
42600;SDS011;28229;48.856;9.088;2024-02-21T12:57:00;3.20;;;1.60;;
42600;SDS011;28229;48.856;9.088;2024-02-21T12:59:29;5.23;;;1.97;;
42600;SDS011;28229;48.856;9.088;2024-02-21T13:01:55;5.13;;;1.73;;
42600;SDS011;28229;48.856;9.088;2024-02-21T13:04:21;5.07;;;1.93;;
42600;SDS011;28229;48.856;9.088;2024-02-21T13:06:48;5.20;;;2.00;;
42600;SDS011;28229;48.856;9.088;2024-02-21T13:09:14;5.20;;;1.83;;
42600;SDS011;28229;48.856;9.088;2024-02-21T13:11:41;3.17;;;2.03;;
42600;SDS011;28229;48.856;9.088;2024-02-21T13:14:09;4.83;;;2.20;;
42600;SDS011;28229;48.856;9.088;2024-02-21T13:16:37;4.93;;;2.07;;
42600;SDS011;28229;48.856;9.088;2024-02-21T13:19:06;3.70;;;1.80;;
42600;SDS011;28229;48.856;9.088;2024-02-21T13:21:36;5.00;;;2.07;;
42600;SDS011;28229;48.856;9.088;2024-02-21T13:24:02;3.37;;;2.13;;
42600;SDS011;28229;48.856;9.088;2024-02-21T13:26:28;3.77;;;2.13;;
42600;SDS011;28229;48.856;9.088;2024-02-21T13:28:54;2.67;;;1.57;;
42600;SDS011;28229;48.856;9.088;2024-02-21T13:31:21;3.10;;;1.77;;
42600;SDS011;28229;48.856;9.088;2024-02-21T13:33:47;3.93;;;1.83;;
42600;SDS011;28229;48.856;9.088;2024-02-21T13:36:13;2.80;;;1.50;;
42600;SDS011;28229;48.856;9.088;2024-02-21T13:38:39;2.30;;;1.40;;
42600;SDS011;28229;48.856;9.088;2024-02-21T13:41:05;2.97;;;1.47;;
42600;SDS011;28229;48.856;9.088;2024-02-21T13:43:34;1.77;;;1.10;;
42600;SDS011;28229;48.856;9.088;2024-02-21T13:46:01;4.27;;;1.50;;
42600;SDS011;28229;48.856;9.088;2024-02-21T13:48:35;3.27;;;1.33;;
42600;SDS011;28229;48.856;9.088;2024-02-21T13:51:01;2.83;;;1.30;;
42600;SDS011;28229;48.856;9.088;2024-02-21T13:53:28;5.67;;;2.43;;
42600;SDS011;28229;48.856;9.088;2024-02-21T13:55:54;5.10;;;1.50;;
42600;SDS011;28229;48.856;9.088;2024-02-21T13:58:20;2.87;;;1.80;;
42600;SDS011;28229;48.856;9.088;2024-02-21T14:00:49;3.03;;;1.60;;
42600;SDS011;28229;48.856;9.088;2024-02-21T14:03:16;3.60;;;1.70;;
42600;SDS011;28229;48.856;9.088;2024-02-21T14:05:44;4.43;;;1.83;;
42600;SDS011;28229;48.856;9.088;2024-02-21T14:08:10;3.80;;;1.80;;
42600;SDS011;28229;48.856;9.088;2024-02-21T14:10:37;1.83;;;1.57;;
42600;SDS011;28229;48.856;9.088;2024-02-21T14:13:04;3.23;;;1.67;;
42600;SDS011;28229;48.856;9.088;2024-02-21T14:15:30;2.90;;;1.80;;
42600;SDS011;28229;48.856;9.088;2024-02-21T14:17:56;2.50;;;1.40;;
42600;SDS011;28229;48.856;9.088;2024-02-21T14:20:22;5.37;;;1.70;;
42600;SDS011;28229;48.856;9.088;2024-02-21T14:22:48;5.07;;;1.60;;
42600;SDS011;28229;48.856;9.088;2024-02-21T14:25:14;3.53;;;1.37;;
42600;SDS011;28229;48.856;9.088;2024-02-21T14:27:41;4.17;;;1.60;;
42600;SDS011;28229;48.856;9.088;2024-02-21T14:30:09;2.97;;;1.60;;
42600;SDS011;28229;48.856;9.088;2024-02-21T14:32:40;4.10;;;1.70;;
42600;SDS011;28229;48.856;9.088;2024-02-21T14:35:09;5.47;;;1.87;;
42600;SDS011;28229;48.856;9.088;2024-02-21T14:37:35;3.63;;;1.90;;
42600;SDS011;28229;48.856;9.088;2024-02-21T14:40:03;3.67;;;2.30;;
42600;SDS011;28229;48.856;9.088;2024-02-21T14:42:30;3.30;;;1.90;;
42600;SDS011;28229;48.856;9.088;2024-02-21T14:44:56;4.90;;;2.00;;
42600;SDS011;28229;48.856;9.088;2024-02-21T14:47:30;2.87;;;1.60;;
42600;SDS011;28229;48.856;9.088;2024-02-21T14:49:57;4.23;;;1.67;;
42600;SDS011;28229;48.856;9.088;2024-02-21T14:52:23;5.60;;;1.80;;
42600;SDS011;28229;48.856;9.088;2024-02-21T14:54:50;7.23;;;3.97;;
42600;SDS011;28229;48.856;9.088;2024-02-21T14:57:17;8.70;;;4.27;;
42600;SDS011;28229;48.856;9.088;2024-02-21T14:59:44;3.07;;;1.80;;
42600;SDS011;28229;48.856;9.088;2024-02-21T15:02:10;3.87;;;2.20;;
42600;SDS011;28229;48.856;9.088;2024-02-21T15:04:36;3.37;;;1.80;;
42600;SDS011;28229;48.856;9.088;2024-02-21T15:07:03;4.37;;;1.77;;
42600;SDS011;28229;48.856;9.088;2024-02-21T15:09:29;7.90;;;2.20;;
42600;SDS011;28229;48.856;9.088;2024-02-21T15:11:56;4.93;;;2.13;;
42600;SDS011;28229;48.856;9.088;2024-02-21T15:14:22;5.90;;;2.00;;
42600;SDS011;28229;48.856;9.088;2024-02-21T15:16:49;3.87;;;2.27;;
42600;SDS011;28229;48.856;9.088;2024-02-21T15:19:15;6.90;;;3.00;;
42600;SDS011;28229;48.856;9.088;2024-02-21T15:21:42;5.13;;;2.40;;
42600;SDS011;28229;48.856;9.088;2024-02-21T15:24:08;3.33;;;2.20;;
42600;SDS011;28229;48.856;9.088;2024-02-21T15:26:34;2.80;;;1.90;;
42600;SDS011;28229;48.856;9.088;2024-02-21T15:29:00;3.00;;;1.83;;
42600;SDS011;28229;48.856;9.088;2024-02-21T15:31:27;2.63;;;1.63;;
42600;SDS011;28229;48.856;9.088;2024-02-21T15:33:53;3.70;;;1.50;;
42600;SDS011;28229;48.856;9.088;2024-02-21T15:36:19;2.63;;;1.20;;
42600;SDS011;28229;48.856;9.088;2024-02-21T15:38:46;2.33;;;1.10;;
42600;SDS011;28229;48.856;9.088;2024-02-21T15:41:12;3.13;;;1.10;;
42600;SDS011;28229;48.856;9.088;2024-02-21T15:43:40;1.87;;;1.63;;
42600;SDS011;28229;48.856;9.088;2024-02-21T15:46:06;3.23;;;2.10;;
42600;SDS011;28229;48.856;9.088;2024-02-21T15:48:32;3.13;;;1.97;;
42600;SDS011;28229;48.856;9.088;2024-02-21T15:51:00;5.23;;;2.00;;
42600;SDS011;28229;48.856;9.088;2024-02-21T15:53:28;2.53;;;1.47;;
42600;SDS011;28229;48.856;9.088;2024-02-21T15:55:54;3.30;;;1.93;;
42600;SDS011;28229;48.856;9.088;2024-02-21T15:58:20;3.30;;;1.73;;
42600;SDS011;28229;48.856;9.088;2024-02-21T16:00:48;2.27;;;1.60;;
42600;SDS011;28229;48.856;9.088;2024-02-21T16:03:15;2.50;;;1.17;;
42600;SDS011;28229;48.856;9.088;2024-02-21T16:05:41;1.73;;;1.07;;
42600;SDS011;28229;48.856;9.088;2024-02-21T16:08:07;3.10;;;1.37;;
42600;SDS011;28229;48.856;9.088;2024-02-21T16:10:34;1.73;;;1.40;;
42600;SDS011;28229;48.856;9.088;2024-02-21T16:13:00;3.10;;;1.70;;
42600;SDS011;28229;48.856;9.088;2024-02-21T16:15:26;3.77;;;2.20;;
42600;SDS011;28229;48.856;9.088;2024-02-21T16:17:52;3.00;;;2.50;;
42600;SDS011;28229;48.856;9.088;2024-02-21T16:20:18;3.83;;;2.00;;
42600;SDS011;28229;48.856;9.088;2024-02-21T16:22:44;4.63;;;2.90;;
42600;SDS011;28229;48.856;9.088;2024-02-21T16:25:10;4.50;;;3.10;;
42600;SDS011;28229;48.856;9.088;2024-02-21T16:27:37;3.00;;;2.50;;
42600;SDS011;28229;48.856;9.088;2024-02-21T16:30:07;4.57;;;2.10;;
42600;SDS011;28229;48.856;9.088;2024-02-21T16:32:33;3.77;;;2.30;;
42600;SDS011;28229;48.856;9.088;2024-02-21T16:35:04;4.70;;;2.30;;
42600;SDS011;28229;48.856;9.088;2024-02-21T16:37:31;4.47;;;1.60;;
42600;SDS011;28229;48.856;9.088;2024-02-21T16:39:57;2.30;;;1.40;;
42600;SDS011;28229;48.856;9.088;2024-02-21T16:42:24;2.77;;;1.50;;
42600;SDS011;28229;48.856;9.088;2024-02-21T16:44:50;1.77;;;1.23;;
42600;SDS011;28229;48.856;9.088;2024-02-21T16:47:16;3.07;;;1.70;;
42600;SDS011;28229;48.856;9.088;2024-02-21T16:49:43;2.07;;;1.50;;
42600;SDS011;28229;48.856;9.088;2024-02-21T16:52:09;1.50;;;1.30;;
42600;SDS011;28229;48.856;9.088;2024-02-21T16:54:35;1.90;;;1.60;;
42600;SDS011;28229;48.856;9.088;2024-02-21T16:57:01;2.40;;;1.60;;
42600;SDS011;28229;48.856;9.088;2024-02-21T16:59:27;2.63;;;1.70;;
42600;SDS011;28229;48.856;9.088;2024-02-21T17:01:54;4.03;;;1.60;;
42600;SDS011;28229;48.856;9.088;2024-02-21T17:04:20;2.40;;;1.60;;
42600;SDS011;28229;48.856;9.088;2024-02-21T17:06:46;4.73;;;2.40;;
42600;SDS011;28229;48.856;9.088;2024-02-21T17:09:13;4.47;;;2.30;;
42600;SDS011;28229;48.856;9.088;2024-02-21T17:11:39;2.37;;;1.60;;
42600;SDS011;28229;48.856;9.088;2024-02-21T17:14:06;6.20;;;2.73;;
42600;SDS011;28229;48.856;9.088;2024-02-21T17:16:32;5.47;;;3.80;;